Terminal Aerodrome Forecast
Issued by NWS

Home | Current Version | Previous Version | Text Only | Print | Product List | Glossary On
Versions: 1 2 3 4 5 6 7 8 9 10 11 12 13
000
FTUS45 KTFX 222300
TAFLWT
TAF
KLWT 222336Z 2300/2324 06011KT P6SM SCT070 BKN150
      TEMPO 2300/2304 VRB20G45KT 5SM -TSRA BKN040CB
     FM231200 VRB06KT P6SM SCT070 BKN120 PROB30 2313/2318 6SM -SHRA
      BKN060
     FM232100 06008KT P6SM VCTS SCT070CB BKN180=

USA.gov is the U.S. government's official web portal to all federal, state and local government web resources and services.